sensor_id;sensor_type;location;lat;lon;timestamp;temperature;humidity
12682;DHT22;6405;59.208;18.216;2023-05-09T00:01:37;1.20;99.90
12682;DHT22;6405;59.208;18.216;2023-05-09T00:04:04;1.20;99.90
12682;DHT22;6405;59.208;18.216;2023-05-09T00:06:30;1.20;99.90
12682;DHT22;6405;59.208;18.216;2023-05-09T00:08:56;1.20;99.90
12682;DHT22;6405;59.208;18.216;2023-05-09T00:11:22;1.20;99.90
12682;DHT22;6405;59.208;18.216;2023-05-09T00:13:48;1.20;99.90
12682;DHT22;6405;59.208;18.216;2023-05-09T00:16:15;1.20;99.90
12682;DHT22;6405;59.208;18.216;2023-05-09T00:18:42;1.20;99.90
12682;DHT22;6405;59.208;18.216;2023-05-09T00:21:10;1.20;99.90
12682;DHT22;6405;59.208;18.216;2023-05-09T00:23:37;1.20;99.90
12682;DHT22;6405;59.208;18.216;2023-05-09T00:26:02;1.30;99.90
12682;DHT22;6405;59.208;18.216;2023-05-09T00:28:28;1.30;99.90
12682;DHT22;6405;59.208;18.216;2023-05-09T00:30:54;1.30;99.90
12682;DHT22;6405;59.208;18.216;2023-05-09T00:33:20;1.30;99.90
12682;DHT22;6405;59.208;18.216;2023-05-09T00:35:46;1.30;99.90
12682;DHT22;6405;59.208;18.216;2023-05-09T00:38:12;1.30;99.90
12682;DHT22;6405;59.208;18.216;2023-05-09T00:40:38;1.30;99.90
12682;DHT22;6405;59.208;18.216;2023-05-09T00:43:03;1.20;99.90
12682;DHT22;6405;59.208;18.216;2023-05-09T00:45:29;1.20;99.90
12682;DHT22;6405;59.208;18.216;2023-05-09T00:47:55;1.20;99.90
12682;DHT22;6405;59.208;18.216;2023-05-09T00:50:22;1.20;99.90
12682;DHT22;6405;59.208;18.216;2023-05-09T00:52:49;1.20;99.90
12682;DHT22;6405;59.208;18.216;2023-05-09T00:55:16;1.20;99.90
12682;DHT22;6405;59.208;18.216;2023-05-09T00:57:41;1.30;99.90
12682;DHT22;6405;59.208;18.216;2023-05-09T01:00:08;1.30;99.90
12682;DHT22;6405;59.208;18.216;2023-05-09T01:02:41;1.30;99.90
12682;DHT22;6405;59.208;18.216;2023-05-09T01:05:07;1.30;99.90
12682;DHT22;6405;59.208;18.216;2023-05-09T01:13:09;1.30;99.90
12682;DHT22;6405;59.208;18.216;2023-05-09T01:16:05;1.30;99.90
12682;DHT22;6405;59.208;18.216;2023-05-09T01:18:42;1.40;99.90
12682;DHT22;6405;59.208;18.216;2023-05-09T01:21:22;1.40;99.90
12682;DHT22;6405;59.208;18.216;2023-05-09T01:27:14;1.50;99.90
12682;DHT22;6405;59.208;18.216;2023-05-09T01:29:46;1.50;99.90
12682;DHT22;6405;59.208;18.216;2023-05-09T01:32:23;1.50;99.90
12682;DHT22;6405;59.208;18.216;2023-05-09T01:34:53;1.50;99.90
12682;DHT22;6405;59.208;18.216;2023-05-09T01:37:23;1.50;99.90
12682;DHT22;6405;59.208;18.216;2023-05-09T01:39:55;1.50;99.90
12682;DHT22;6405;59.208;18.216;2023-05-09T01:42:24;1.50;99.90
12682;DHT22;6405;59.208;18.216;2023-05-09T01:44:53;1.60;99.90
12682;DHT22;6405;59.208;18.216;2023-05-09T01:47:20;1.60;99.90
12682;DHT22;6405;59.208;18.216;2023-05-09T01:49:46;1.60;99.90
12682;DHT22;6405;59.208;18.216;2023-05-09T01:52:15;1.70;99.90
12682;DHT22;6405;59.208;18.216;2023-05-09T01:54:43;1.70;99.90
12682;DHT22;6405;59.208;18.216;2023-05-09T01:57:10;1.80;99.90
12682;DHT22;6405;59.208;18.216;2023-05-09T01:59:39;1.80;99.90
12682;DHT22;6405;59.208;18.216;2023-05-09T02:02:06;1.90;99.90
12682;DHT22;6405;59.208;18.216;2023-05-09T02:04:33;1.90;99.90
12682;DHT22;6405;59.208;18.216;2023-05-09T02:07:00;2.00;99.90
12682;DHT22;6405;59.208;18.216;2023-05-09T02:09:27;2.00;99.90
12682;DHT22;6405;59.208;18.216;2023-05-09T02:11:53;2.10;99.90
12682;DHT22;6405;59.208;18.216;2023-05-09T02:14:18;2.10;99.90
12682;DHT22;6405;59.208;18.216;2023-05-09T02:16:44;2.10;99.90
12682;DHT22;6405;59.208;18.216;2023-05-09T02:19:10;2.20;99.90
12682;DHT22;6405;59.208;18.216;2023-05-09T02:21:36;2.20;99.90
12682;DHT22;6405;59.208;18.216;2023-05-09T02:24:01;2.20;99.90
12682;DHT22;6405;59.208;18.216;2023-05-09T02:26:28;2.30;99.90
12682;DHT22;6405;59.208;18.216;2023-05-09T02:28:54;2.40;99.90
12682;DHT22;6405;59.208;18.216;2023-05-09T02:31:21;2.40;99.90
12682;DHT22;6405;59.208;18.216;2023-05-09T02:33:48;2.40;99.90
12682;DHT22;6405;59.208;18.216;2023-05-09T02:36:16;2.50;99.90
12682;DHT22;6405;59.208;18.216;2023-05-09T02:38:43;2.50;99.90
12682;DHT22;6405;59.208;18.216;2023-05-09T02:41:16;2.70;99.90
12682;DHT22;6405;59.208;18.216;2023-05-09T02:43:41;2.50;99.90
12682;DHT22;6405;59.208;18.216;2023-05-09T02:46:08;2.50;99.90
12682;DHT22;6405;59.208;18.216;2023-05-09T02:48:35;2.50;99.90
12682;DHT22;6405;59.208;18.216;2023-05-09T02:51:00;2.50;99.90
12682;DHT22;6405;59.208;18.216;2023-05-09T02:53:26;2.50;99.90
12682;DHT22;6405;59.208;18.216;2023-05-09T02:55:52;2.50;99.90
12682;DHT22;6405;59.208;18.216;2023-05-09T02:58:19;2.50;99.90
12682;DHT22;6405;59.208;18.216;2023-05-09T03:00:44;2.60;99.90
12682;DHT22;6405;59.208;18.216;2023-05-09T03:03:10;2.60;99.90
12682;DHT22;6405;59.208;18.216;2023-05-09T03:05:36;2.60;99.90
12682;DHT22;6405;59.208;18.216;2023-05-09T03:08:02;2.70;99.90
12682;DHT22;6405;59.208;18.216;2023-05-09T03:10:27;2.60;99.90
12682;DHT22;6405;59.208;18.216;2023-05-09T03:12:53;2.60;99.90
12682;DHT22;6405;59.208;18.216;2023-05-09T03:15:19;2.60;99.90
12682;DHT22;6405;59.208;18.216;2023-05-09T03:17:45;2.60;99.90
12682;DHT22;6405;59.208;18.216;2023-05-09T03:20:11;2.70;99.90
12682;DHT22;6405;59.208;18.216;2023-05-09T03:22:37;2.70;99.90
12682;DHT22;6405;59.208;18.216;2023-05-09T03:25:03;2.80;99.90
12682;DHT22;6405;59.208;18.216;2023-05-09T03:27:29;2.80;99.90
12682;DHT22;6405;59.208;18.216;2023-05-09T03:29:54;2.90;99.90
12682;DHT22;6405;59.208;18.216;2023-05-09T03:32:20;3.00;99.90
12682;DHT22;6405;59.208;18.216;2023-05-09T03:34:46;3.00;99.90
12682;DHT22;6405;59.208;18.216;2023-05-09T03:37:12;3.10;99.90
12682;DHT22;6405;59.208;18.216;2023-05-09T03:39:37;3.10;99.90
12682;DHT22;6405;59.208;18.216;2023-05-09T03:42:03;3.20;99.90
12682;DHT22;6405;59.208;18.216;2023-05-09T03:44:29;3.30;99.90
12682;DHT22;6405;59.208;18.216;2023-05-09T03:46:54;3.30;99.90
12682;DHT22;6405;59.208;18.216;2023-05-09T03:49:20;3.40;99.90
12682;DHT22;6405;59.208;18.216;2023-05-09T03:51:45;3.40;99.90
12682;DHT22;6405;59.208;18.216;2023-05-09T03:54:11;3.50;99.90
12682;DHT22;6405;59.208;18.216;2023-05-09T03:56:37;3.50;99.90
12682;DHT22;6405;59.208;18.216;2023-05-09T03:59:02;3.60;99.90
12682;DHT22;6405;59.208;18.216;2023-05-09T04:01:28;3.60;99.90
12682;DHT22;6405;59.208;18.216;2023-05-09T04:03:54;3.70;99.90
12682;DHT22;6405;59.208;18.216;2023-05-09T04:06:22;3.80;99.90
12682;DHT22;6405;59.208;18.216;2023-05-09T04:08:48;3.90;99.90
12682;DHT22;6405;59.208;18.216;2023-05-09T04:11:13;3.90;99.90
12682;DHT22;6405;59.208;18.216;2023-05-09T04:13:39;4.00;99.90
12682;DHT22;6405;59.208;18.216;2023-05-09T04:16:05;4.10;99.90
12682;DHT22;6405;59.208;18.216;2023-05-09T04:18:31;4.20;99.90
12682;DHT22;6405;59.208;18.216;2023-05-09T04:20:56;4.20;99.90
12682;DHT22;6405;59.208;18.216;2023-05-09T04:23:22;4.40;99.90
12682;DHT22;6405;59.208;18.216;2023-05-09T04:25:48;4.50;99.90
12682;DHT22;6405;59.208;18.216;2023-05-09T04:28:15;4.60;99.90
12682;DHT22;6405;59.208;18.216;2023-05-09T04:30:41;4.70;99.90
12682;DHT22;6405;59.208;18.216;2023-05-09T04:33:06;4.80;99.90
12682;DHT22;6405;59.208;18.216;2023-05-09T04:35:32;4.80;99.90
12682;DHT22;6405;59.208;18.216;2023-05-09T04:37:58;4.90;99.90
12682;DHT22;6405;59.208;18.216;2023-05-09T04:40:24;5.00;99.90
12682;DHT22;6405;59.208;18.216;2023-05-09T04:42:49;5.10;99.90
12682;DHT22;6405;59.208;18.216;2023-05-09T04:45:16;5.20;99.90
12682;DHT22;6405;59.208;18.216;2023-05-09T04:47:42;5.30;99.90
12682;DHT22;6405;59.208;18.216;2023-05-09T04:50:08;5.40;99.90
12682;DHT22;6405;59.208;18.216;2023-05-09T04:52:33;5.50;99.90
12682;DHT22;6405;59.208;18.216;2023-05-09T04:54:59;5.50;99.90
12682;DHT22;6405;59.208;18.216;2023-05-09T04:57:25;5.60;99.90
12682;DHT22;6405;59.208;18.216;2023-05-09T04:59:51;5.70;99.90
12682;DHT22;6405;59.208;18.216;2023-05-09T05:02:17;5.80;99.90
12682;DHT22;6405;59.208;18.216;2023-05-09T05:04:43;5.90;99.90
12682;DHT22;6405;59.208;18.216;2023-05-09T05:07:08;6.00;99.90
12682;DHT22;6405;59.208;18.216;2023-05-09T05:09:34;6.10;99.90
12682;DHT22;6405;59.208;18.216;2023-05-09T05:12:00;6.20;99.90
12682;DHT22;6405;59.208;18.216;2023-05-09T05:14:25;6.20;99.90
12682;DHT22;6405;59.208;18.216;2023-05-09T05:16:51;6.30;99.90
12682;DHT22;6405;59.208;18.216;2023-05-09T05:19:16;6.30;99.90
12682;DHT22;6405;59.208;18.216;2023-05-09T05:21:42;6.40;99.90
12682;DHT22;6405;59.208;18.216;2023-05-09T05:24:08;6.50;99.90
12682;DHT22;6405;59.208;18.216;2023-05-09T05:26:34;6.60;99.90
12682;DHT22;6405;59.208;18.216;2023-05-09T05:28:59;6.60;99.90
12682;DHT22;6405;59.208;18.216;2023-05-09T05:31:25;6.70;99.90
12682;DHT22;6405;59.208;18.216;2023-05-09T05:33:50;6.80;99.90
12682;DHT22;6405;59.208;18.216;2023-05-09T05:36:16;6.80;99.90
12682;DHT22;6405;59.208;18.216;2023-05-09T05:38:42;6.90;99.90
12682;DHT22;6405;59.208;18.216;2023-05-09T05:41:07;7.00;99.90
12682;DHT22;6405;59.208;18.216;2023-05-09T05:43:36;7.10;99.90
12682;DHT22;6405;59.208;18.216;2023-05-09T05:46:01;7.20;99.90
12682;DHT22;6405;59.208;18.216;2023-05-09T05:48:27;7.50;99.90
12682;DHT22;6405;59.208;18.216;2023-05-09T05:50:53;7.60;99.90
12682;DHT22;6405;59.208;18.216;2023-05-09T05:53:18;7.60;99.90
12682;DHT22;6405;59.208;18.216;2023-05-09T05:55:44;7.80;99.90
12682;DHT22;6405;59.208;18.216;2023-05-09T05:58:11;7.90;99.90
12682;DHT22;6405;59.208;18.216;2023-05-09T06:00:36;7.90;99.90
12682;DHT22;6405;59.208;18.216;2023-05-09T06:03:02;8.00;99.90
12682;DHT22;6405;59.208;18.216;2023-05-09T06:05:28;8.20;99.90
12682;DHT22;6405;59.208;18.216;2023-05-09T06:07:53;8.30;99.90
12682;DHT22;6405;59.208;18.216;2023-05-09T06:10:19;8.40;99.90
12682;DHT22;6405;59.208;18.216;2023-05-09T06:12:44;8.40;99.90
12682;DHT22;6405;59.208;18.216;2023-05-09T06:15:10;8.50;99.90
12682;DHT22;6405;59.208;18.216;2023-05-09T06:17:36;8.70;99.90
12682;DHT22;6405;59.208;18.216;2023-05-09T06:20:02;8.60;99.90
12682;DHT22;6405;59.208;18.216;2023-05-09T06:22:27;8.70;99.90
12682;DHT22;6405;59.208;18.216;2023-05-09T06:24:53;8.90;99.90
12682;DHT22;6405;59.208;18.216;2023-05-09T06:27:19;8.90;99.90
12682;DHT22;6405;59.208;18.216;2023-05-09T06:29:44;9.00;99.90
12682;DHT22;6405;59.208;18.216;2023-05-09T06:32:10;9.10;99.90
12682;DHT22;6405;59.208;18.216;2023-05-09T06:34:36;9.40;99.90
12682;DHT22;6405;59.208;18.216;2023-05-09T06:37:01;9.40;99.90
12682;DHT22;6405;59.208;18.216;2023-05-09T06:39:27;9.50;99.90
12682;DHT22;6405;59.208;18.216;2023-05-09T06:41:53;9.90;99.90
12682;DHT22;6405;59.208;18.216;2023-05-09T06:44:18;9.90;99.90
12682;DHT22;6405;59.208;18.216;2023-05-09T06:46:44;10.00;99.90
12682;DHT22;6405;59.208;18.216;2023-05-09T06:49:10;10.10;99.90
12682;DHT22;6405;59.208;18.216;2023-05-09T06:51:37;10.10;99.90
12682;DHT22;6405;59.208;18.216;2023-05-09T06:54:03;10.20;99.90
12682;DHT22;6405;59.208;18.216;2023-05-09T06:56:29;10.30;99.90
12682;DHT22;6405;59.208;18.216;2023-05-09T06:58:55;10.40;99.90
12682;DHT22;6405;59.208;18.216;2023-05-09T07:01:21;10.50;99.90
12682;DHT22;6405;59.208;18.216;2023-05-09T07:03:47;10.60;99.90
12682;DHT22;6405;59.208;18.216;2023-05-09T07:06:12;10.70;99.90
12682;DHT22;6405;59.208;18.216;2023-05-09T07:08:39;10.70;99.90
12682;DHT22;6405;59.208;18.216;2023-05-09T07:11:04;10.80;99.90
12682;DHT22;6405;59.208;18.216;2023-05-09T07:13:30;11.00;99.90
12682;DHT22;6405;59.208;18.216;2023-05-09T07:15:56;11.00;99.90
12682;DHT22;6405;59.208;18.216;2023-05-09T07:18:22;11.10;99.90
12682;DHT22;6405;59.208;18.216;2023-05-09T07:20:47;11.10;99.90
12682;DHT22;6405;59.208;18.216;2023-05-09T07:23:13;11.30;99.90
12682;DHT22;6405;59.208;18.216;2023-05-09T07:25:39;11.40;99.90
12682;DHT22;6405;59.208;18.216;2023-05-09T07:28:04;11.40;99.90
12682;DHT22;6405;59.208;18.216;2023-05-09T07:30:30;11.60;99.90
12682;DHT22;6405;59.208;18.216;2023-05-09T07:32:56;11.70;99.90
12682;DHT22;6405;59.208;18.216;2023-05-09T07:35:21;11.90;99.90
12682;DHT22;6405;59.208;18.216;2023-05-09T07:37:47;11.90;99.90
12682;DHT22;6405;59.208;18.216;2023-05-09T07:40:13;12.00;99.90
12682;DHT22;6405;59.208;18.216;2023-05-09T07:42:39;12.00;99.90
12682;DHT22;6405;59.208;18.216;2023-05-09T07:45:05;12.20;99.90
12682;DHT22;6405;59.208;18.216;2023-05-09T07:47:31;12.30;99.90
12682;DHT22;6405;59.208;18.216;2023-05-09T07:49:57;12.50;99.90
12682;DHT22;6405;59.208;18.216;2023-05-09T07:52:23;12.50;99.90
12682;DHT22;6405;59.208;18.216;2023-05-09T07:54:48;12.60;99.90
12682;DHT22;6405;59.208;18.216;2023-05-09T07:57:14;12.80;99.90
12682;DHT22;6405;59.208;18.216;2023-05-09T07:59:40;12.80;99.90
12682;DHT22;6405;59.208;18.216;2023-05-09T08:02:07;13.10;99.90
12682;DHT22;6405;59.208;18.216;2023-05-09T08:04:33;13.10;99.90
12682;DHT22;6405;59.208;18.216;2023-05-09T08:07:02;13.10;99.90
12682;DHT22;6405;59.208;18.216;2023-05-09T08:09:28;13.40;99.90
12682;DHT22;6405;59.208;18.216;2023-05-09T08:11:54;13.70;99.90
12682;DHT22;6405;59.208;18.216;2023-05-09T08:14:19;14.10;99.90
12682;DHT22;6405;59.208;18.216;2023-05-09T08:16:45;14.30;99.90
12682;DHT22;6405;59.208;18.216;2023-05-09T08:19:10;14.50;99.90
12682;DHT22;6405;59.208;18.216;2023-05-09T08:21:36;14.80;99.90
12682;DHT22;6405;59.208;18.216;2023-05-09T08:24:02;15.00;99.90
12682;DHT22;6405;59.208;18.216;2023-05-09T08:26:28;15.20;99.90
12682;DHT22;6405;59.208;18.216;2023-05-09T08:28:53;15.50;99.90
12682;DHT22;6405;59.208;18.216;2023-05-09T08:31:19;15.80;99.90
12682;DHT22;6405;59.208;18.216;2023-05-09T08:33:45;15.80;99.90
12682;DHT22;6405;59.208;18.216;2023-05-09T08:36:10;16.10;99.90
12682;DHT22;6405;59.208;18.216;2023-05-09T08:38:36;16.10;99.90
12682;DHT22;6405;59.208;18.216;2023-05-09T08:41:04;16.50;99.90
12682;DHT22;6405;59.208;18.216;2023-05-09T08:43:32;16.40;99.90
12682;DHT22;6405;59.208;18.216;2023-05-09T08:46:02;16.30;99.90
12682;DHT22;6405;59.208;18.216;2023-05-09T08:48:28;16.30;99.90
12682;DHT22;6405;59.208;18.216;2023-05-09T08:50:55;16.20;99.90
12682;DHT22;6405;59.208;18.216;2023-05-09T08:53:21;16.40;99.90
12682;DHT22;6405;59.208;18.216;2023-05-09T08:55:50;16.70;99.90
12682;DHT22;6405;59.208;18.216;2023-05-09T08:58:18;16.70;99.90
12682;DHT22;6405;59.208;18.216;2023-05-09T09:00:45;16.60;99.90
12682;DHT22;6405;59.208;18.216;2023-05-09T09:03:11;16.80;99.90
12682;DHT22;6405;59.208;18.216;2023-05-09T09:05:40;16.70;99.90
12682;DHT22;6405;59.208;18.216;2023-05-09T09:08:07;16.60;99.90
12682;DHT22;6405;59.208;18.216;2023-05-09T09:10:33;16.50;99.90
12682;DHT22;6405;59.208;18.216;2023-05-09T09:13:01;16.70;99.90
12682;DHT22;6405;59.208;18.216;2023-05-09T09:15:33;16.60;99.90
12682;DHT22;6405;59.208;18.216;2023-05-09T09:18:04;16.60;99.90
12682;DHT22;6405;59.208;18.216;2023-05-09T09:20:31;16.80;99.90
12682;DHT22;6405;59.208;18.216;2023-05-09T09:22:59;16.70;99.90
12682;DHT22;6405;59.208;18.216;2023-05-09T09:25:26;16.70;99.90
12682;DHT22;6405;59.208;18.216;2023-05-09T09:27:52;16.50;99.90
12682;DHT22;6405;59.208;18.216;2023-05-09T09:30:17;16.20;99.90
12682;DHT22;6405;59.208;18.216;2023-05-09T09:32:43;16.20;99.90
12682;DHT22;6405;59.208;18.216;2023-05-09T09:35:10;16.00;99.90
12682;DHT22;6405;59.208;18.216;2023-05-09T09:37:38;15.90;99.90
12682;DHT22;6405;59.208;18.216;2023-05-09T09:40:06;15.80;99.90
12682;DHT22;6405;59.208;18.216;2023-05-09T09:42:46;15.70;99.90
12682;DHT22;6405;59.208;18.216;2023-05-09T09:45:16;15.80;99.90
12682;DHT22;6405;59.208;18.216;2023-05-09T09:47:43;15.80;99.90
12682;DHT22;6405;59.208;18.216;2023-05-09T09:50:13;15.90;99.90
12682;DHT22;6405;59.208;18.216;2023-05-09T09:52:49;15.90;99.90
12682;DHT22;6405;59.208;18.216;2023-05-09T09:55:16;15.90;99.90
12682;DHT22;6405;59.208;18.216;2023-05-09T09:57:42;15.70;99.90
12682;DHT22;6405;59.208;18.216;2023-05-09T10:00:13;15.70;99.90
12682;DHT22;6405;59.208;18.216;2023-05-09T10:02:54;15.90;99.90
12682;DHT22;6405;59.208;18.216;2023-05-09T10:05:26;16.20;99.90
12682;DHT22;6405;59.208;18.216;2023-05-09T10:10:20;16.40;99.90
12682;DHT22;6405;59.208;18.216;2023-05-09T10:12:48;16.60;99.90
12682;DHT22;6405;59.208;18.216;2023-05-09T10:15:16;16.90;99.90
12682;DHT22;6405;59.208;18.216;2023-05-09T10:17:44;16.70;99.90
12682;DHT22;6405;59.208;18.216;2023-05-09T10:20:11;16.70;99.90
12682;DHT22;6405;59.208;18.216;2023-05-09T10:22:38;16.70;99.90
12682;DHT22;6405;59.208;18.216;2023-05-09T10:25:09;17.00;99.90
12682;DHT22;6405;59.208;18.216;2023-05-09T10:27:40;17.10;99.90
12682;DHT22;6405;59.208;18.216;2023-05-09T10:30:22;17.20;99.90
12682;DHT22;6405;59.208;18.216;2023-05-09T10:33:06;17.00;99.90
12682;DHT22;6405;59.208;18.216;2023-05-09T10:35:36;17.00;99.90
12682;DHT22;6405;59.208;18.216;2023-05-09T10:38:05;17.00;99.90
12682;DHT22;6405;59.208;18.216;2023-05-09T10:40:33;16.90;99.90
12682;DHT22;6405;59.208;18.216;2023-05-09T10:42:59;16.80;99.90
12682;DHT22;6405;59.208;18.216;2023-05-09T10:45:25;16.90;99.90
12682;DHT22;6405;59.208;18.216;2023-05-09T10:47:51;16.80;99.90
12682;DHT22;6405;59.208;18.216;2023-05-09T10:50:19;16.80;99.90
12682;DHT22;6405;59.208;18.216;2023-05-09T10:53:05;16.90;99.90
12682;DHT22;6405;59.208;18.216;2023-05-09T11:00:49;16.60;99.90
12682;DHT22;6405;59.208;18.216;2023-05-09T11:03:15;16.70;99.90
12682;DHT22;6405;59.208;18.216;2023-05-09T11:05:47;16.70;99.90
12682;DHT22;6405;59.208;18.216;2023-05-09T11:08:28;16.70;99.90
12682;DHT22;6405;59.208;18.216;2023-05-09T11:10:56;16.80;99.90
12682;DHT22;6405;59.208;18.216;2023-05-09T11:13:30;16.70;99.90
12682;DHT22;6405;59.208;18.216;2023-05-09T11:18:28;16.90;99.90
12682;DHT22;6405;59.208;18.216;2023-05-09T11:20:54;16.90;99.90
12682;DHT22;6405;59.208;18.216;2023-05-09T11:23:21;16.90;99.90
12682;DHT22;6405;59.208;18.216;2023-05-09T11:25:50;17.00;99.90
12682;DHT22;6405;59.208;18.216;2023-05-09T11:28:29;17.30;99.90
12682;DHT22;6405;59.208;18.216;2023-05-09T11:31:15;17.20;99.90
12682;DHT22;6405;59.208;18.216;2023-05-09T11:33:43;16.90;99.90
12682;DHT22;6405;59.208;18.216;2023-05-09T11:36:20;16.90;99.90
12682;DHT22;6405;59.208;18.216;2023-05-09T11:39:04;17.10;99.90
12682;DHT22;6405;59.208;18.216;2023-05-09T11:41:35;17.10;99.90
12682;DHT22;6405;59.208;18.216;2023-05-09T11:44:14;17.00;99.90
12682;DHT22;6405;59.208;18.216;2023-05-09T11:46:41;16.80;99.90
12682;DHT22;6405;59.208;18.216;2023-05-09T11:49:07;16.80;99.90
12682;DHT22;6405;59.208;18.216;2023-05-09T11:51:35;17.00;99.90
12682;DHT22;6405;59.208;18.216;2023-05-09T11:54:03;16.80;99.90
12682;DHT22;6405;59.208;18.216;2023-05-09T11:56:30;16.60;99.90
12682;DHT22;6405;59.208;18.216;2023-05-09T11:58:57;16.70;99.90
12682;DHT22;6405;59.208;18.216;2023-05-09T12:01:23;16.80;99.90
12682;DHT22;6405;59.208;18.216;2023-05-09T12:03:50;17.10;99.90
12682;DHT22;6405;59.208;18.216;2023-05-09T12:06:17;17.10;99.90
12682;DHT22;6405;59.208;18.216;2023-05-09T12:08:46;16.80;99.90
12682;DHT22;6405;59.208;18.216;2023-05-09T12:11:12;16.70;99.90
12682;DHT22;6405;59.208;18.216;2023-05-09T12:13:49;16.90;99.90
12682;DHT22;6405;59.208;18.216;2023-05-09T12:16:18;16.90;99.90
12682;DHT22;6405;59.208;18.216;2023-05-09T12:18:48;16.90;99.90
12682;DHT22;6405;59.208;18.216;2023-05-09T12:21:15;16.80;99.90
12682;DHT22;6405;59.208;18.216;2023-05-09T12:23:40;16.60;99.90
12682;DHT22;6405;59.208;18.216;2023-05-09T12:26:06;16.70;99.90
12682;DHT22;6405;59.208;18.216;2023-05-09T12:28:33;16.80;99.90
12682;DHT22;6405;59.208;18.216;2023-05-09T12:30:59;16.60;99.90
12682;DHT22;6405;59.208;18.216;2023-05-09T12:33:25;16.60;99.90
12682;DHT22;6405;59.208;18.216;2023-05-09T12:36:11;16.50;99.90
12682;DHT22;6405;59.208;18.216;2023-05-09T12:38:37;16.40;99.90
12682;DHT22;6405;59.208;18.216;2023-05-09T12:41:07;16.30;99.90
12682;DHT22;6405;59.208;18.216;2023-05-09T12:43:37;16.20;99.90
12682;DHT22;6405;59.208;18.216;2023-05-09T12:46:04;16.10;99.90
12682;DHT22;6405;59.208;18.216;2023-05-09T12:48:34;15.90;99.90
12682;DHT22;6405;59.208;18.216;2023-05-09T12:51:05;16.20;99.90
12682;DHT22;6405;59.208;18.216;2023-05-09T12:53:39;16.30;99.90
12682;DHT22;6405;59.208;18.216;2023-05-09T12:56:16;16.50;99.90
12682;DHT22;6405;59.208;18.216;2023-05-09T12:58:53;16.50;99.90
12682;DHT22;6405;59.208;18.216;2023-05-09T13:01:20;16.80;99.90
12682;DHT22;6405;59.208;18.216;2023-05-09T13:04:06;16.70;99.90
12682;DHT22;6405;59.208;18.216;2023-05-09T13:06:33;16.70;99.90
12682;DHT22;6405;59.208;18.216;2023-05-09T13:09:01;16.90;99.90
12682;DHT22;6405;59.208;18.216;2023-05-09T13:11:30;16.80;99.90
12682;DHT22;6405;59.208;18.216;2023-05-09T13:13:56;16.80;99.90
12682;DHT22;6405;59.208;18.216;2023-05-09T13:16:21;16.90;99.90
12682;DHT22;6405;59.208;18.216;2023-05-09T13:18:47;17.00;99.90
12682;DHT22;6405;59.208;18.216;2023-05-09T13:21:13;17.00;99.90
12682;DHT22;6405;59.208;18.216;2023-05-09T13:23:38;17.00;99.90
12682;DHT22;6405;59.208;18.216;2023-05-09T13:26:06;17.20;99.90
12682;DHT22;6405;59.208;18.216;2023-05-09T13:28:31;17.20;99.90
12682;DHT22;6405;59.208;18.216;2023-05-09T13:30:57;17.30;99.90
12682;DHT22;6405;59.208;18.216;2023-05-09T13:33:23;17.10;99.90
12682;DHT22;6405;59.208;18.216;2023-05-09T13:35:49;16.90;99.90
12682;DHT22;6405;59.208;18.216;2023-05-09T13:38:15;16.70;99.90
12682;DHT22;6405;59.208;18.216;2023-05-09T13:40:40;16.60;99.90
12682;DHT22;6405;59.208;18.216;2023-05-09T13:43:06;16.70;99.90
12682;DHT22;6405;59.208;18.216;2023-05-09T13:45:32;16.80;99.90
12682;DHT22;6405;59.208;18.216;2023-05-09T13:47:57;16.80;99.90
12682;DHT22;6405;59.208;18.216;2023-05-09T13:50:23;16.70;99.90
12682;DHT22;6405;59.208;18.216;2023-05-09T13:52:49;16.80;99.90
12682;DHT22;6405;59.208;18.216;2023-05-09T13:55:14;16.80;99.90
12682;DHT22;6405;59.208;18.216;2023-05-09T13:57:41;17.00;99.90
12682;DHT22;6405;59.208;18.216;2023-05-09T14:00:07;17.00;99.90
12682;DHT22;6405;59.208;18.216;2023-05-09T14:02:33;16.90;99.90
12682;DHT22;6405;59.208;18.216;2023-05-09T14:04:59;16.80;99.90
12682;DHT22;6405;59.208;18.216;2023-05-09T14:07:27;17.00;99.90
12682;DHT22;6405;59.208;18.216;2023-05-09T14:09:53;17.00;99.90
12682;DHT22;6405;59.208;18.216;2023-05-09T14:12:18;16.90;99.90
12682;DHT22;6405;59.208;18.216;2023-05-09T14:14:44;16.80;99.90
12682;DHT22;6405;59.208;18.216;2023-05-09T14:17:09;16.60;99.90
12682;DHT22;6405;59.208;18.216;2023-05-09T14:19:35;16.70;99.90
12682;DHT22;6405;59.208;18.216;2023-05-09T14:22:01;16.60;99.90
12682;DHT22;6405;59.208;18.216;2023-05-09T14:24:26;16.60;99.90
12682;DHT22;6405;59.208;18.216;2023-05-09T14:26:55;16.60;99.90
12682;DHT22;6405;59.208;18.216;2023-05-09T14:29:21;16.60;99.90
12682;DHT22;6405;59.208;18.216;2023-05-09T14:31:47;16.70;99.90
12682;DHT22;6405;59.208;18.216;2023-05-09T14:34:12;16.80;99.90
12682;DHT22;6405;59.208;18.216;2023-05-09T14:36:38;16.90;99.90
12682;DHT22;6405;59.208;18.216;2023-05-09T14:39:04;17.30;99.90
12682;DHT22;6405;59.208;18.216;2023-05-09T14:41:30;17.00;99.90
12682;DHT22;6405;59.208;18.216;2023-05-09T14:43:56;16.90;99.90
12682;DHT22;6405;59.208;18.216;2023-05-09T14:46:22;16.70;99.90
12682;DHT22;6405;59.208;18.216;2023-05-09T14:48:49;16.50;99.90
12682;DHT22;6405;59.208;18.216;2023-05-09T14:51:16;16.30;99.90
12682;DHT22;6405;59.208;18.216;2023-05-09T14:53:42;16.40;99.90
12682;DHT22;6405;59.208;18.216;2023-05-09T14:56:08;16.50;99.90
12682;DHT22;6405;59.208;18.216;2023-05-09T14:58:35;16.40;99.90
12682;DHT22;6405;59.208;18.216;2023-05-09T15:01:02;16.60;99.90
12682;DHT22;6405;59.208;18.216;2023-05-09T15:03:28;16.60;99.90
12682;DHT22;6405;59.208;18.216;2023-05-09T15:05:54;16.60;99.90
12682;DHT22;6405;59.208;18.216;2023-05-09T15:08:19;16.50;99.90
12682;DHT22;6405;59.208;18.216;2023-05-09T15:10:45;16.70;99.90
12682;DHT22;6405;59.208;18.216;2023-05-09T15:13:12;16.80;99.90
12682;DHT22;6405;59.208;18.216;2023-05-09T15:15:38;16.60;99.90
12682;DHT22;6405;59.208;18.216;2023-05-09T15:18:05;16.60;99.90
12682;DHT22;6405;59.208;18.216;2023-05-09T15:20:35;16.50;99.90
12682;DHT22;6405;59.208;18.216;2023-05-09T15:23:00;16.50;99.90
12682;DHT22;6405;59.208;18.216;2023-05-09T15:25:26;16.10;99.90
12682;DHT22;6405;59.208;18.216;2023-05-09T15:27:52;16.00;99.90
12682;DHT22;6405;59.208;18.216;2023-05-09T15:30:17;16.00;99.90
12682;DHT22;6405;59.208;18.216;2023-05-09T15:32:43;15.80;99.90
12682;DHT22;6405;59.208;18.216;2023-05-09T15:35:09;15.20;99.90
12682;DHT22;6405;59.208;18.216;2023-05-09T15:37:35;14.90;99.90
12682;DHT22;6405;59.208;18.216;2023-05-09T15:40:00;14.90;99.90
12682;DHT22;6405;59.208;18.216;2023-05-09T15:42:26;14.70;99.90
12682;DHT22;6405;59.208;18.216;2023-05-09T15:44:52;14.60;99.90
12682;DHT22;6405;59.208;18.216;2023-05-09T15:47:18;14.50;99.90
12682;DHT22;6405;59.208;18.216;2023-05-09T15:49:44;14.20;99.90
12682;DHT22;6405;59.208;18.216;2023-05-09T15:52:09;14.20;99.90
12682;DHT22;6405;59.208;18.216;2023-05-09T15:54:36;14.20;99.90
12682;DHT22;6405;59.208;18.216;2023-05-09T15:57:02;14.20;99.90